Athens, Tennessee
Current Conditions -  °F | °C
As of 9:35 PM on Sunday 23 Nov 2014 (Local Time) from KMMI Reporting Station
Broken Clouds Broken Clouds  
Wind Chill: 17°   Ceiling: 4100
Heat Index: 17°   Visibility: 10mi
Dew Point: 13°   Wind: 7mph
Humidity: 77%   Direction: NA
Pressure: 29.62"   Gusts: NA
Location:  35.44°N, 84.59°W
Report Text: KMMI 240235Z AUTO VRB06KT 10SM FEW029 SCT035 BKN041 17/13 A2962 RMK
Loading
Personal Weather Stations






























Interactive Weather Map New forecast layout! Learn more

10-Day Weather Forecast

Advertisements
Track Severe Weather on mobile